Time;durP1;ratioP1;P1;durP2;ratioP2;P2;SDS_P1;SDS_P2;PMS_P1;PMS_P2;Temp;Humidity;BMP_temperature;BMP_pressure;BME280_temperature;BME280_humidity;BME280_pressure;Samples;Min_cycle;Max_cycle;Signal;HPM_P1;HPM_P2
2023/02/05 00:02:07;;;;;;;2.90;1.90;;;;;;;;;;4935789;28;20233;-89
2023/02/05 00:04:33;;;;;;;1.93;1.50;;;;;;;;;;4925821;29;20223;-90
2023/02/05 00:06:59;;;;;;;1.83;1.70;;;;;;;;;;4933498;29;20280;-87
2023/02/05 00:09:27;;;;;;;2.07;1.90;;;;;;;;;;4950083;28;20744;-88
2023/02/05 00:11:55;;;;;;;2.00;1.83;;;;;;;;;;4942872;28;20341;-89
2023/02/05 00:14:21;;;;;;;1.57;1.47;;;;;;;;;;4961970;28;20735;-87
2023/02/05 00:16:49;;;;;;;1.93;1.73;;;;;;;;;;4958459;28;20230;-88
2023/02/05 00:19:17;;;;;;;2.80;2.20;;;;;;;;;;4927082;28;20315;-89
2023/02/05 00:21:43;;;;;;;2.10;1.90;;;;;;;;;;4965205;28;20219;-87
2023/02/05 00:24:09;;;;;;;2.97;2.20;;;;;;;;;;4968650;28;20274;-88
2023/02/05 00:26:37;;;;;;;1.77;1.67;;;;;;;;;;4962528;28;20223;-87
2023/02/05 00:29:02;;;;;;;2.60;2.23;;;;;;;;;;4944394;28;20301;-86
2023/02/05 00:31:28;;;;;;;2.00;1.73;;;;;;;;;;4976180;28;20798;-89
2023/02/05 00:33:54;;;;;;;1.80;1.70;;;;;;;;;;4931587;29;20257;-87
2023/02/05 00:36:21;;;;;;;2.07;1.87;;;;;;;;;;4930088;28;20299;-88
2023/02/05 00:38:47;;;;;;;2.60;2.10;;;;;;;;;;4969798;28;20325;-89
2023/02/05 00:41:13;;;;;;;2.23;2.03;;;;;;;;;;4952621;28;20231;-88
2023/02/05 00:43:41;;;;;;;2.70;2.20;;;;;;;;;;4926562;29;20222;-83
2023/02/05 00:46:06;;;;;;;1.90;1.80;;;;;;;;;;4902761;28;20226;-88
2023/02/05 00:48:34;;;;;;;2.87;2.40;;;;;;;;;;4969315;28;20255;-88
2023/02/05 00:51:05;;;;;;;2.30;2.13;;;;;;;;;;4943907;28;20215;-86
2023/02/05 00:53:36;;;;;;;3.30;2.27;;;;;;;;;;4946301;28;20253;-86
2023/02/05 00:56:01;;;;;;;2.23;2.03;;;;;;;;;;4958363;28;20278;-86
2023/02/05 00:58:29;;;;;;;3.70;2.40;;;;;;;;;;4963111;28;20251;-87
2023/02/05 01:00:56;;;;;;;2.43;2.03;;;;;;;;;;4953349;28;20230;-83
2023/02/05 01:03:21;;;;;;;2.73;2.23;;;;;;;;;;4957437;28;20229;-86
2023/02/05 01:05:47;;;;;;;2.30;2.10;;;;;;;;;;4942328;28;20216;-84
2023/02/05 01:08:12;;;;;;;2.63;2.30;;;;;;;;;;4965871;28;20231;-85
2023/02/05 01:10:44;;;;;;;2.50;2.30;;;;;;;;;;4940303;28;20250;-83
2023/02/05 01:13:13;;;;;;;2.10;2.00;;;;;;;;;;4912816;28;20221;-80
2023/02/05 01:15:41;;;;;;;2.57;2.37;;;;;;;;;;4964054;28;20241;-85
2023/02/05 01:18:07;;;;;;;2.53;2.20;;;;;;;;;;4944212;28;20219;-83
2023/02/05 01:20:39;;;;;;;2.17;2.07;;;;;;;;;;4948100;28;20374;-85
2023/02/05 01:23:08;;;;;;;3.83;2.40;;;;;;;;;;4947902;28;20223;-86
2023/02/05 01:25:35;;;;;;;2.50;2.30;;;;;;;;;;4948230;28;20232;-85
2023/02/05 01:28:00;;;;;;;3.73;2.67;;;;;;;;;;4953423;28;20218;-83
2023/02/05 01:30:30;;;;;;;2.23;2.03;;;;;;;;;;4946209;28;20298;-83
2023/02/05 01:32:56;;;;;;;2.80;2.60;;;;;;;;;;4944360;28;20327;-83
2023/02/05 01:35:26;;;;;;;2.90;2.60;;;;;;;;;;4938295;28;20247;-82
2023/02/05 01:37:51;;;;;;;2.43;2.23;;;;;;;;;;4933203;29;20243;-85
2023/02/05 01:40:17;;;;;;;2.80;2.60;;;;;;;;;;4928781;28;20238;-84
2023/02/05 01:42:45;;;;;;;2.80;2.60;;;;;;;;;;4936748;28;20527;-85
2023/02/05 01:45:23;;;;;;;3.50;2.27;;;;;;;;;;4953233;28;20639;-86
2023/02/05 01:47:59;;;;;;;2.70;2.50;;;;;;;;;;4977040;28;20254;-83
2023/02/05 01:50:39;;;;;;;2.50;2.30;;;;;;;;;;4958035;28;20218;-85
2023/02/05 01:53:06;;;;;;;3.60;2.40;;;;;;;;;;4973238;28;20214;-85
2023/02/05 01:55:34;;;;;;;2.67;2.47;;;;;;;;;;4921939;29;20227;-85
2023/02/05 01:57:59;;;;;;;2.87;2.67;;;;;;;;;;4956893;28;20254;-84
2023/02/05 02:00:25;;;;;;;2.80;2.60;;;;;;;;;;4943286;28;20223;-85
2023/02/05 02:02:53;;;;;;;2.40;2.30;;;;;;;;;;4951554;28;20310;-84
2023/02/05 02:05:23;;;;;;;2.30;2.10;;;;;;;;;;4951792;28;20771;-83
2023/02/05 02:07:49;;;;;;;2.77;2.57;;;;;;;;;;4928795;29;20233;-83
2023/02/05 02:10:17;;;;;;;3.10;2.80;;;;;;;;;;4954558;28;20223;-81
2023/02/05 02:12:45;;;;;;;3.93;2.43;;;;;;;;;;4945718;28;20271;-84
2023/02/05 02:15:15;;;;;;;2.77;2.40;;;;;;;;;;4923553;28;20226;-84
2023/02/05 02:17:42;;;;;;;2.70;2.50;;;;;;;;;;4953766;28;20247;-83
2023/02/05 02:20:12;;;;;;;3.63;2.57;;;;;;;;;;4931606;28;20215;-84
2023/02/05 02:22:50;;;;;;;2.80;2.40;;;;;;;;;;4936131;28;20238;-84
2023/02/05 02:25:18;;;;;;;3.07;2.77;;;;;;;;;;4967030;28;20294;-83
2023/02/05 02:28:12;;;;;;;3.33;2.83;;;;;;;;;;4958555;28;20295;-85
2023/02/05 02:31:17;;;;;;;2.50;2.30;;;;;;;;;;4963071;28;20234;-84
2023/02/05 02:34:07;;;;;;;2.73;2.40;;;;;;;;;;4957701;28;20234;-81
2023/02/05 02:36:57;;;;;;;2.97;2.37;;;;;;;;;;4961384;28;20246;-87
2023/02/05 02:39:26;;;;;;;2.50;2.30;;;;;;;;;;4949195;28;20238;-84
2023/02/05 02:41:54;;;;;;;2.80;2.60;;;;;;;;;;4940560;28;20227;-86
2023/02/05 02:44:39;;;;;;;4.23;2.57;;;;;;;;;;4954092;28;20226;-85
2023/02/05 02:47:13;;;;;;;3.97;2.47;;;;;;;;;;4951719;28;20230;-87
2023/02/05 02:49:44;;;;;;;2.63;2.33;;;;;;;;;;4950112;28;20233;-83
2023/02/05 02:52:11;;;;;;;2.70;2.40;;;;;;;;;;4927315;28;20223;-86
2023/02/05 02:54:41;;;;;;;2.73;2.50;;;;;;;;;;4923694;29;20229;-81
2023/02/05 02:57:07;;;;;;;3.13;2.33;;;;;;;;;;4903005;28;20234;-86
2023/02/05 02:59:40;;;;;;;2.80;2.60;;;;;;;;;;4947098;28;20231;-87
2023/02/05 03:02:08;;;;;;;2.53;2.37;;;;;;;;;;4935284;28;20309;-87
2023/02/05 03:04:37;;;;;;;3.10;2.80;;;;;;;;;;4920253;29;20218;-85
2023/02/05 03:07:19;;;;;;;4.33;2.80;;;;;;;;;;4930134;28;20241;-83
2023/02/05 03:10:03;;;;;;;2.67;2.43;;;;;;;;;;4973817;28;20491;-87
2023/02/05 03:12:32;;;;;;;2.90;2.63;;;;;;;;;;4943473;28;20233;-87
2023/02/05 03:15:01;;;;;;;2.70;2.40;;;;;;;;;;4957467;28;20226;-85
2023/02/05 03:17:27;;;;;;;2.73;2.40;;;;;;;;;;4920732;29;20241;-86
2023/02/05 03:20:09;;;;;;;2.50;2.20;;;;;;;;;;4939924;28;20226;-86
2023/02/05 03:22:34;;;;;;;3.27;2.40;;;;;;;;;;4929371;29;20223;-84
2023/02/05 03:25:00;;;;;;;3.97;2.87;;;;;;;;;;4931284;28;20237;-82
2023/02/05 03:27:27;;;;;;;2.93;2.50;;;;;;;;;;4962580;28;20224;-85
2023/02/05 03:29:56;;;;;;;3.30;2.30;;;;;;;;;;4929494;29;20230;-84
2023/02/05 03:32:41;;;;;;;2.60;2.40;;;;;;;;;;4944758;28;20223;-83
2023/02/05 03:35:15;;;;;;;3.20;2.90;;;;;;;;;;4986407;28;20350;-86
2023/02/05 03:38:12;;;;;;;3.80;2.50;;;;;;;;;;4951449;28;20315;-85
2023/02/05 03:40:45;;;;;;;3.47;2.37;;;;;;;;;;4962613;28;20226;-86
2023/02/05 03:43:35;;;;;;;3.20;2.53;;;;;;;;;;4929672;28;20219;-84
2023/02/05 03:46:23;;;;;;;2.97;2.13;;;;;;;;;;4960766;28;20215;-82
2023/02/05 03:49:15;;;;;;;2.83;2.60;;;;;;;;;;4941057;28;20274;-85
2023/02/05 03:51:41;;;;;;;3.20;2.37;;;;;;;;;;4942114;29;20227;-86
2023/02/05 03:54:40;;;;;;;2.60;2.40;;;;;;;;;;4967573;28;20248;-84
2023/02/05 03:57:17;;;;;;;2.23;2.13;;;;;;;;;;4924267;28;20227;-84
2023/02/05 03:59:48;;;;;;;2.43;2.23;;;;;;;;;;4967815;28;20310;-86
2023/02/05 04:02:15;;;;;;;2.70;2.50;;;;;;;;;;4907194;28;20693;-85
2023/02/05 04:04:43;;;;;;;2.83;2.50;;;;;;;;;;4959442;28;20219;-86
2023/02/05 04:07:09;;;;;;;2.63;2.13;;;;;;;;;;4927279;28;20218;-87
2023/02/05 04:09:35;;;;;;;3.87;2.37;;;;;;;;;;4942098;28;20255;-84
2023/02/05 04:12:01;;;;;;;2.67;2.40;;;;;;;;;;4927242;29;20272;-84
2023/02/05 04:14:28;;;;;;;2.30;2.10;;;;;;;;;;4928125;28;20233;-84
2023/02/05 04:16:56;;;;;;;2.70;2.50;;;;;;;;;;4950052;29;20231;-85
2023/02/05 04:19:26;;;;;;;2.50;2.27;;;;;;;;;;4924997;28;20231;-86
2023/02/05 04:21:56;;;;;;;2.57;2.30;;;;;;;;;;4928504;29;20226;-86
2023/02/05 04:24:24;;;;;;;2.50;2.20;;;;;;;;;;4951421;28;20227;-83
2023/02/05 04:26:53;;;;;;;2.57;2.30;;;;;;;;;;4928461;29;20303;-84
2023/02/05 04:29:21;;;;;;;3.53;2.47;;;;;;;;;;4912716;28;20218;-86
2023/02/05 04:31:51;;;;;;;2.53;2.27;;;;;;;;;;4959338;28;20294;-85
2023/02/05 04:34:17;;;;;;;2.93;2.50;;;;;;;;;;4911833;28;20207;-85
2023/02/05 04:36:42;;;;;;;3.03;2.57;;;;;;;;;;4956755;28;20219;-84
2023/02/05 04:39:08;;;;;;;2.77;2.20;;;;;;;;;;4942705;28;20231;-83
2023/02/05 04:41:34;;;;;;;2.13;2.03;;;;;;;;;;4951180;28;20252;-84
2023/02/05 04:44:00;;;;;;;4.00;2.20;;;;;;;;;;4973347;28;20218;-85
2023/02/05 04:46:30;;;;;;;2.80;2.37;;;;;;;;;;4938364;28;20282;-83
2023/02/05 04:48:55;;;;;;;2.60;2.40;;;;;;;;;;4951385;28;20232;-83
2023/02/05 04:51:21;;;;;;;3.57;2.33;;;;;;;;;;4954779;28;20219;-86
2023/02/05 04:53:51;;;;;;;2.23;2.03;;;;;;;;;;4963138;28;20227;-87
2023/02/05 04:56:21;;;;;;;2.30;2.10;;;;;;;;;;4931216;28;20229;-88
2023/02/05 04:58:51;;;;;;;4.83;2.40;;;;;;;;;;4922684;29;20238;-87
2023/02/05 05:01:21;;;;;;;2.77;2.57;;;;;;;;;;4946162;28;20585;-88
2023/02/05 05:03:48;;;;;;;2.73;2.10;;;;;;;;;;4956521;28;20231;-88
2023/02/05 05:06:15;;;;;;;2.07;1.97;;;;;;;;;;4938451;28;20339;-88
2023/02/05 05:08:40;;;;;;;2.63;2.20;;;;;;;;;;4911296;29;20235;-87
2023/02/05 05:11:14;;;;;;;3.17;2.63;;;;;;;;;;4924842;28;20219;-88
2023/02/05 05:13:42;;;;;;;2.30;2.10;;;;;;;;;;4938384;28;20223;-87
2023/02/05 05:16:10;;;;;;;2.23;2.10;;;;;;;;;;4928884;28;20240;-87
2023/02/05 05:18:40;;;;;;;2.47;2.27;;;;;;;;;;4914995;29;20601;-86
2023/02/05 05:21:06;;;;;;;2.60;2.40;;;;;;;;;;4965294;28;20308;-87
2023/02/05 05:23:36;;;;;;;2.63;2.23;;;;;;;;;;4943663;28;20294;-86
2023/02/05 05:26:06;;;;;;;2.33;2.13;;;;;;;;;;4958652;28;20878;-87
2023/02/05 05:28:33;;;;;;;2.27;2.03;;;;;;;;;;4886338;29;1178369;-87
2023/02/05 05:30:59;;;;;;;2.30;2.17;;;;;;;;;;4961032;28;20253;-88
2023/02/05 05:33:29;;;;;;;2.50;2.30;;;;;;;;;;4946039;28;20223;-88
2023/02/05 05:35:59;;;;;;;1.87;1.70;;;;;;;;;;4952589;28;20245;-87
2023/02/05 05:38:27;;;;;;;2.70;2.47;;;;;;;;;;4956067;28;20258;-87
2023/02/05 05:43:45;;;;;;;2.40;2.20;;;;;;;;;;4936664;28;20231;-88
2023/02/05 05:46:11;;;;;;;3.00;2.10;;;;;;;;;;4931803;28;20849;-87
2023/02/05 05:48:41;;;;;;;2.00;1.80;;;;;;;;;;4946968;29;20282;-87
2023/02/05 05:51:07;;;;;;;2.13;1.93;;;;;;;;;;4920133;28;20587;-88
2023/02/05 05:53:32;;;;;;;2.50;2.30;;;;;;;;;;4931098;29;20238;-88
2023/02/05 05:56:03;;;;;;;2.43;1.83;;;;;;;;;;4959076;28;20611;-85
2023/02/05 05:58:28;;;;;;;2.43;2.10;;;;;;;;;;4942824;28;20244;-88
2023/02/05 06:00:56;;;;;;;3.30;2.37;;;;;;;;;;4953725;28;20235;-88
2023/02/05 06:03:24;;;;;;;2.23;2.10;;;;;;;;;;4952119;28;20215;-87
2023/02/05 06:05:50;;;;;;;2.40;2.20;;;;;;;;;;4952470;28;20242;-88
2023/02/05 06:08:15;;;;;;;3.03;2.13;;;;;;;;;;4955098;28;20247;-88
2023/02/05 06:10:41;;;;;;;2.47;2.10;;;;;;;;;;4955450;28;20238;-88
2023/02/05 06:13:06;;;;;;;2.20;2.00;;;;;;;;;;4952430;28;20611;-86
2023/02/05 06:15:34;;;;;;;2.07;1.97;;;;;;;;;;4926790;29;20321;-88
2023/02/05 06:18:00;;;;;;;2.90;2.20;;;;;;;;;;4932861;29;20231;-86
2023/02/05 06:20:26;;;;;;;2.73;2.13;;;;;;;;;;4946467;28;20233;-88
2023/02/05 06:22:51;;;;;;;1.87;1.77;;;;;;;;;;4943538;28;20266;-88
2023/02/05 06:25:17;;;;;;;2.17;2.00;;;;;;;;;;4907624;28;20224;-87
2023/02/05 06:27:42;;;;;;;3.03;2.07;;;;;;;;;;4941341;28;20239;-87
2023/02/05 06:30:11;;;;;;;2.53;2.30;;;;;;;;;;4915561;28;20210;-89
2023/02/05 06:32:36;;;;;;;2.60;2.40;;;;;;;;;;4944756;28;20785;-88
2023/02/05 06:35:02;;;;;;;2.33;2.13;;;;;;;;;;4950177;28;20226;-87
2023/02/05 06:37:29;;;;;;;5.00;2.70;;;;;;;;;;4913583;29;20242;-87
2023/02/05 06:39:54;;;;;;;3.17;2.23;;;;;;;;;;4943863;28;20268;-88
2023/02/05 06:42:20;;;;;;;2.23;2.03;;;;;;;;;;4921901;28;20239;-87
2023/02/05 06:44:46;;;;;;;2.30;2.17;;;;;;;;;;4949237;28;20226;-86
2023/02/05 06:47:12;;;;;;;3.20;2.90;;;;;;;;;;4935596;28;20538;-87
2023/02/05 06:49:38;;;;;;;2.63;2.43;;;;;;;;;;4942786;28;20235;-87
2023/02/05 06:52:03;;;;;;;3.13;2.57;;;;;;;;;;4967276;28;20227;-87
2023/02/05 06:54:29;;;;;;;2.77;2.40;;;;;;;;;;4948054;28;20227;-87
2023/02/05 06:57:00;;;;;;;3.77;2.47;;;;;;;;;;4935440;28;20842;-87
2023/02/05 06:59:28;;;;;;;3.20;2.43;;;;;;;;;;4940325;28;20229;-87
2023/02/05 07:01:53;;;;;;;2.70;2.50;;;;;;;;;;4912736;29;20211;-88
2023/02/05 07:04:19;;;;;;;2.60;2.40;;;;;;;;;;4931875;28;20218;-87
2023/02/05 07:06:47;;;;;;;2.83;2.60;;;;;;;;;;4939255;28;20227;-88
2023/02/05 07:09:12;;;;;;;2.27;2.10;;;;;;;;;;4958835;28;20215;-88
2023/02/05 07:11:38;;;;;;;2.53;2.30;;;;;;;;;;4940368;29;20250;-87
2023/02/05 07:14:06;;;;;;;4.47;2.60;;;;;;;;;;4939820;28;20565;-88
2023/02/05 07:16:34;;;;;;;2.83;2.47;;;;;;;;;;4958487;28;20257;-88
2023/02/05 07:19:02;;;;;;;2.73;2.53;;;;;;;;;;4935473;28;20262;-87
2023/02/05 07:21:27;;;;;;;2.23;2.03;;;;;;;;;;4925763;28;20231;-86
2023/02/05 07:23:53;;;;;;;3.20;2.40;;;;;;;;;;4922424;29;20228;-87
2023/02/05 07:26:19;;;;;;;2.13;2.00;;;;;;;;;;4927985;28;20219;-88
2023/02/05 07:28:44;;;;;;;3.20;2.60;;;;;;;;;;4923797;28;20226;-87
2023/02/05 07:31:14;;;;;;;2.83;2.40;;;;;;;;;;4947346;28;20233;-87
2023/02/05 07:33:41;;;;;;;2.63;2.43;;;;;;;;;;4938247;28;20219;-86
2023/02/05 07:36:07;;;;;;;3.67;3.37;;;;;;;;;;4963965;28;20230;-87
2023/02/05 07:38:36;;;;;;;3.50;3.20;;;;;;;;;;4966710;28;20251;-88
2023/02/05 07:41:06;;;;;;;4.47;3.17;;;;;;;;;;4934304;28;20230;-87
2023/02/05 07:43:31;;;;;;;4.07;3.23;;;;;;;;;;4943445;29;20227;-88
2023/02/05 07:45:57;;;;;;;2.90;2.57;;;;;;;;;;4944421;28;20227;-87
2023/02/05 07:48:23;;;;;;;2.63;2.43;;;;;;;;;;4943085;28;20230;-87
2023/02/05 07:50:49;;;;;;;2.73;2.53;;;;;;;;;;4938524;28;20232;-88
2023/02/05 07:53:17;;;;;;;2.80;2.60;;;;;;;;;;4922418;28;20234;-87
2023/02/05 07:55:43;;;;;;;3.00;2.63;;;;;;;;;;4947783;29;20286;-87
2023/02/05 07:58:08;;;;;;;2.83;2.63;;;;;;;;;;4925473;28;20270;-87
2023/02/05 08:00:36;;;;;;;5.23;2.33;;;;;;;;;;4932592;29;20214;-86
2023/02/05 08:03:04;;;;;;;2.43;2.23;;;;;;;;;;4930489;28;20222;-87
2023/02/05 08:05:30;;;;;;;2.80;2.50;;;;;;;;;;4935806;28;20746;-87
2023/02/05 08:07:55;;;;;;;3.23;2.33;;;;;;;;;;4956644;28;20215;-87
2023/02/05 08:10:26;;;;;;;3.03;2.73;;;;;;;;;;4976642;28;20218;-87
2023/02/05 08:12:51;;;;;;;2.13;1.93;;;;;;;;;;4946684;28;20247;-86
2023/02/05 08:15:17;;;;;;;3.33;2.90;;;;;;;;;;4970266;28;20588;-86
2023/02/05 08:17:42;;;;;;;2.63;2.43;;;;;;;;;;4945687;28;20295;-85
2023/02/05 08:20:09;;;;;;;4.73;3.27;;;;;;;;;;4934365;28;20575;-87
2023/02/05 08:22:36;;;;;;;2.50;2.30;;;;;;;;;;4962662;28;20322;-87
2023/02/05 08:25:03;;;;;;;4.77;3.40;;;;;;;;;;4930197;29;20284;-86
2023/02/05 08:27:30;;;;;;;2.60;1.90;;;;;;;;;;4936776;29;20191;-87
2023/02/05 08:29:56;;;;;;;3.30;2.63;;;;;;;;;;4929627;29;20328;-87
2023/02/05 08:32:21;;;;;;;3.23;2.10;;;;;;;;;;4937563;29;20195;-88
2023/02/05 08:34:47;;;;;;;3.35;3.05;;;;;;;;;;4949382;28;20467;-88
2023/02/05 08:37:12;;;;;;;2.60;2.40;;;;;;;;;;4945472;29;20223;-87
2023/02/05 08:39:38;;;;;;;2.40;2.17;;;;;;;;;;4938226;28;20179;-87
2023/02/05 08:42:04;;;;;;;3.17;2.20;;;;;;;;;;4924628;28;20212;-87
2023/02/05 08:44:32;;;;;;;2.40;2.20;;;;;;;;;;4949781;28;20227;-89
2023/02/05 08:46:58;;;;;;;2.57;2.23;;;;;;;;;;4914537;29;20208;-88
2023/02/05 08:49:24;;;;;;;2.63;2.40;;;;;;;;;;4943526;28;20229;-87
2023/02/05 08:51:50;;;;;;;2.70;2.20;;;;;;;;;;4909777;29;20596;-87
2023/02/05 08:54:16;;;;;;;2.47;2.27;;;;;;;;;;4911493;28;20215;-88
2023/02/05 08:56:42;;;;;;;2.40;2.20;;;;;;;;;;4920264;29;20222;-87
2023/02/05 08:59:10;;;;;;;2.43;2.20;;;;;;;;;;4937965;28;20294;-88
2023/02/05 09:01:39;;;;;;;5.03;2.47;;;;;;;;;;4943248;28;20229;-87
2023/02/05 09:04:06;;;;;;;2.70;2.30;;;;;;;;;;4962386;28;20309;-87
2023/02/05 09:06:32;;;;;;;3.70;2.93;;;;;;;;;;4967880;28;20234;-87
2023/02/05 09:08:57;;;;;;;3.80;2.37;;;;;;;;;;4974976;28;20203;-88
2023/02/05 09:11:25;;;;;;;3.20;2.50;;;;;;;;;;4933873;28;20227;-87
2023/02/05 09:13:52;;;;;;;2.50;2.30;;;;;;;;;;4932130;29;20222;-88
2023/02/05 09:16:17;;;;;;;3.27;2.10;;;;;;;;;;4960254;28;20230;-88
2023/02/05 09:18:43;;;;;;;3.50;2.37;;;;;;;;;;4934470;29;20226;-87
2023/02/05 09:21:09;;;;;;;2.47;2.27;;;;;;;;;;4945646;28;20216;-87
2023/02/05 09:23:34;;;;;;;2.30;2.10;;;;;;;;;;4965125;28;20223;-88
2023/02/05 09:26:00;;;;;;;2.50;2.30;;;;;;;;;;4950418;28;20245;-87
2023/02/05 09:28:26;;;;;;;2.40;2.20;;;;;;;;;;4949977;28;20225;-87
2023/02/05 09:30:51;;;;;;;2.60;2.13;;;;;;;;;;4938203;28;20222;-88
2023/02/05 09:33:17;;;;;;;2.23;2.03;;;;;;;;;;4948135;28;20222;-87
2023/02/05 09:35:44;;;;;;;2.67;2.27;;;;;;;;;;4965228;28;20223;-87
2023/02/05 09:38:17;;;;;;;2.30;2.10;;;;;;;;;;4947760;28;20250;-88
2023/02/05 09:41:06;;;;;;;3.07;1.83;;;;;;;;;;4912848;29;20216;-88
2023/02/05 09:43:56;;;;;;;1.97;1.73;;;;;;;;;;4947854;28;20271;-89
2023/02/05 09:46:34;;;;;;;2.00;1.90;;;;;;;;;;4934348;28;20227;-88
2023/02/05 09:49:48;;;;;;;2.30;2.10;;;;;;;;;;4936723;28;20214;-88
2023/02/05 09:52:28;;;;;;;5.30;2.03;;;;;;;;;;4939784;28;20223;-87
2023/02/05 09:54:57;;;;;;;2.60;2.40;;;;;;;;;;4950540;29;20604;-87
2023/02/05 09:57:31;;;;;;;2.50;2.30;;;;;;;;;;4941627;28;20239;-87
2023/02/05 09:59:56;;;;;;;3.30;2.00;;;;;;;;;;4934527;29;20223;-87
2023/02/05 10:02:43;;;;;;;3.60;2.03;;;;;;;;;;4962074;28;20230;-87
2023/02/05 10:05:15;;;;;;;4.00;2.27;;;;;;;;;;4940599;28;20219;-88
2023/02/05 10:08:05;;;;;;;2.47;2.27;;;;;;;;;;4951132;28;20207;-87
2023/02/05 10:10:35;;;;;;;2.40;1.80;;;;;;;;;;4939100;29;20250;-88
2023/02/05 10:13:29;;;;;;;2.40;2.20;;;;;;;;;;4989400;28;20242;-87
2023/02/05 10:16:10;;;;;;;2.23;2.00;;;;;;;;;;4947842;28;20219;-87
2023/02/05 10:18:42;;;;;;;2.73;2.20;;;;;;;;;;4972166;28;20239;-86
2023/02/05 10:21:21;;;;;;;2.87;2.47;;;;;;;;;;4947668;28;20253;-87
2023/02/05 10:24:24;;;;;;;2.53;2.10;;;;;;;;;;4966954;28;20214;-88
2023/02/05 10:27:17;;;;;;;2.40;2.10;;;;;;;;;;4975218;28;20226;-87
2023/02/05 10:30:11;;;;;;;3.67;2.20;;;;;;;;;;4949358;29;20227;-88
2023/02/05 10:32:53;;;;;;;2.23;2.03;;;;;;;;;;4942939;29;20215;-88
2023/02/05 10:35:46;;;;;;;3.20;2.43;;;;;;;;;;4967807;28;20218;-88
2023/02/05 10:38:20;;;;;;;3.03;2.27;;;;;;;;;;4950346;28;20277;-87
2023/02/05 10:40:46;;;;;;;2.47;2.20;;;;;;;;;;4955617;28;20230;-87
2023/02/05 10:43:38;;;;;;;2.63;1.97;;;;;;;;;;4959320;28;20219;-88
2023/02/05 10:46:04;;;;;;;2.93;2.20;;;;;;;;;;4944849;28;20227;-88
2023/02/05 10:48:32;;;;;;;2.63;2.43;;;;;;;;;;4951662;28;20362;-88
2023/02/05 10:51:14;;;;;;;2.50;2.30;;;;;;;;;;4980657;28;20253;-88
2023/02/05 10:53:40;;;;;;;7.17;2.30;;;;;;;;;;4930073;28;20238;-87
2023/02/05 10:56:06;;;;;;;3.50;2.37;;;;;;;;;;4934999;28;20300;-87
2023/02/05 10:58:46;;;;;;;2.20;2.00;;;;;;;;;;4961658;28;20234;-86
2023/02/05 11:01:27;;;;;;;2.47;2.27;;;;;;;;;;4959795;28;20234;-88
2023/02/05 11:04:05;;;;;;;2.50;2.17;;;;;;;;;;4947751;28;20233;-86
2023/02/05 11:06:44;;;;;;;3.53;2.73;;;;;;;;;;4952661;28;20230;-89
2023/02/05 11:09:25;;;;;;;3.23;2.30;;;;;;;;;;4946041;28;20222;-89
2023/02/05 11:11:51;;;;;;;3.20;2.43;;;;;;;;;;4959802;28;20221;-88
2023/02/05 11:14:38;;;;;;;2.23;1.93;;;;;;;;;;4966638;28;20214;-89
2023/02/05 11:17:20;;;;;;;2.70;2.40;;;;;;;;;;4953477;28;20255;-89
2023/02/05 11:20:13;;;;;;;2.43;2.20;;;;;;;;;;4926664;29;20237;-88
2023/02/05 11:22:39;;;;;;;3.43;2.33;;;;;;;;;;4935233;29;20229;-88
2023/02/05 11:25:06;;;;;;;3.37;2.40;;;;;;;;;;4966581;28;20223;-88
2023/02/05 11:27:33;;;;;;;2.30;2.00;;;;;;;;;;4944516;28;20296;-88
2023/02/05 11:30:24;;;;;;;2.97;2.30;;;;;;;;;;4949691;28;20226;-88
2023/02/05 11:32:50;;;;;;;2.47;2.27;;;;;;;;;;4938956;28;20249;-87
2023/02/05 11:35:23;;;;;;;3.43;2.27;;;;;;;;;;4941210;28;20219;-87
2023/02/05 11:38:05;;;;;;;2.30;2.10;;;;;;;;;;4927247;29;20222;-88
2023/02/05 11:40:31;;;;;;;3.43;2.40;;;;;;;;;;4954903;28;20218;-88
2023/02/05 11:43:02;;;;;;;2.77;2.40;;;;;;;;;;4935973;28;20219;-87
2023/02/05 11:45:29;;;;;;;2.60;2.40;;;;;;;;;;4934827;28;20235;-88
2023/02/05 11:47:55;;;;;;;2.53;2.33;;;;;;;;;;4926599;29;20243;-88
2023/02/05 11:50:24;;;;;;;3.13;2.07;;;;;;;;;;4939962;28;20237;-89
2023/02/05 11:52:49;;;;;;;3.27;2.60;;;;;;;;;;4909509;29;20738;-88
2023/02/05 11:55:28;;;;;;;4.03;2.80;;;;;;;;;;4919243;28;20219;-88
2023/02/05 11:57:59;;;;;;;2.07;1.93;;;;;;;;;;4926933;28;20227;-89
2023/02/05 12:00:25;;;;;;;4.47;2.53;;;;;;;;;;4924431;28;20219;-87
2023/02/05 12:03:09;;;;;;;2.60;2.40;;;;;;;;;;4977545;28;20218;-88
2023/02/05 12:05:38;;;;;;;2.40;2.07;;;;;;;;;;4943063;29;20242;-88
2023/02/05 12:08:09;;;;;;;2.53;2.30;;;;;;;;;;4940947;28;20684;-88
2023/02/05 12:10:56;;;;;;;3.53;2.30;;;;;;;;;;4928597;29;20222;-88
2023/02/05 12:13:53;;;;;;;3.80;2.30;;;;;;;;;;4947524;28;20230;-88
2023/02/05 12:16:22;;;;;;;2.77;2.30;;;;;;;;;;4945840;28;20230;-87
2023/02/05 12:19:23;;;;;;;3.37;2.47;;;;;;;;;;4948218;28;20234;-88
2023/02/05 12:21:51;;;;;;;2.57;2.20;;;;;;;;;;4934875;28;20245;-87
2023/02/05 12:24:39;;;;;;;4.17;2.30;;;;;;;;;;4945006;28;20222;-89
2023/02/05 12:27:24;;;;;;;26.10;20.50;;;;;;;;;;4967071;28;20206;-88
2023/02/05 12:30:08;;;;;;;3.27;2.87;;;;;;;;;;4932220;28;20219;-86
2023/02/05 12:32:42;;;;;;;2.53;2.30;;;;;;;;;;4974075;28;20246;-88
2023/02/05 12:35:39;;;;;;;2.50;2.30;;;;;;;;;;4957460;28;20722;-88
2023/02/05 12:38:18;;;;;;;3.07;2.27;;;;;;;;;;4949377;28;20250;-88
2023/02/05 12:41:21;;;;;;;3.40;2.50;;;;;;;;;;4944534;29;20754;-87
2023/02/05 12:43:47;;;;;;;3.27;2.30;;;;;;;;;;4953694;28;20222;-87
2023/02/05 12:47:00;;;;;;;2.53;2.17;;;;;;;;;;4929703;28;20227;-87
2023/02/05 12:49:47;;;;;;;2.30;1.80;;;;;;;;;;4922164;29;20219;-87
2023/02/05 12:52:38;;;;;;;2.40;2.20;;;;;;;;;;4908773;29;20223;-87
2023/02/05 12:56:00;;;;;;;2.47;1.97;;;;;;;;;;4940318;28;20213;-87
2023/02/05 12:58:33;;;;;;;2.23;1.97;;;;;;;;;;4980815;28;20761;-87
2023/02/05 13:01:00;;;;;;;3.27;2.30;;;;;;;;;;4964052;28;20232;-86
2023/02/05 13:03:37;;;;;;;3.97;1.90;;;;;;;;;;4932507;28;20218;-87
2023/02/05 13:06:05;;;;;;;2.37;1.97;;;;;;;;;;4941316;28;20273;-86
2023/02/05 13:08:53;;;;;;;2.60;2.20;;;;;;;;;;4941815;28;20226;-88
2023/02/05 13:11:26;;;;;;;2.77;2.40;;;;;;;;;;4904915;28;20266;-89
2023/02/05 13:14:12;;;;;;;3.70;2.03;;;;;;;;;;4971854;28;20223;-89
2023/02/05 13:16:51;;;;;;;2.47;2.00;;;;;;;;;;4965199;28;20235;-89
2023/02/05 13:19:17;;;;;;;5.50;4.00;;;;;;;;;;4957369;28;20314;-88
2023/02/05 13:30:27;;;;;;;22.40;11.37;;;;;;;;;;4928295;28;20218;-87
2023/02/05 13:32:54;;;;;;;14.47;6.77;;;;;;;;;;4947126;28;20299;-87
2023/02/05 13:35:22;;;;;;;63.97;31.53;;;;;;;;;;4940946;28;20293;-88
2023/02/05 13:38:16;;;;;;;8.43;5.30;;;;;;;;;;4928270;29;20232;-87
2023/02/05 13:40:44;;;;;;;5.53;2.87;;;;;;;;;;4958111;28;20242;-88
2023/02/05 13:43:25;;;;;;;5.10;3.43;;;;;;;;;;4952931;28;20227;-88
2023/02/05 13:46:17;;;;;;;4.60;3.10;;;;;;;;;;4959304;28;20226;-87
2023/02/05 13:49:03;;;;;;;2.60;2.40;;;;;;;;;;4930871;29;20222;-87
2023/02/05 13:51:41;;;;;;;5.20;3.23;;;;;;;;;;4972246;28;20226;-88
2023/02/05 13:54:16;;;;;;;4.70;2.33;;;;;;;;;;4949255;28;20265;-86
2023/02/05 14:07:53;;;;;;;6.10;4.10;;;;;;;;;;4961163;28;20237;-78
2023/02/05 14:10:29;;;;;;;3.43;2.40;;;;;;;;;;4966433;28;20223;-76
2023/02/05 14:13:12;;;;;;;2.33;1.93;;;;;;;;;;4965992;28;20222;-77
2023/02/05 14:15:43;;;;;;;3.20;2.40;;;;;;;;;;4962924;28;20246;-77
2023/02/05 14:18:12;;;;;;;2.33;2.00;;;;;;;;;;4967740;28;20223;-78
2023/02/05 14:20:40;;;;;;;2.77;2.47;;;;;;;;;;4965547;28;20226;-78
2023/02/05 14:23:15;;;;;;;3.53;2.43;;;;;;;;;;4962595;28;20242;-79
2023/02/05 14:26:05;;;;;;;4.77;3.63;;;;;;;;;;4974806;28;20223;-78
2023/02/05 14:28:36;;;;;;;2.73;2.50;;;;;;;;;;4969220;28;20251;-74
2023/02/05 14:31:06;;;;;;;2.60;2.33;;;;;;;;;;4954567;28;20802;-79
2023/02/05 14:33:36;;;;;;;3.83;3.37;;;;;;;;;;4970827;28;20335;-77
2023/02/05 14:36:19;;;;;;;7.00;4.40;;;;;;;;;;4937858;28;20231;-79
2023/02/05 14:38:50;;;;;;;5.97;4.43;;;;;;;;;;4956771;28;20553;-80
2023/02/05 14:41:19;;;;;;;4.57;3.50;;;;;;;;;;4949838;28;20226;-78
2023/02/05 14:43:59;;;;;;;3.87;2.83;;;;;;;;;;4959631;28;20227;-78
2023/02/05 14:46:40;;;;;;;4.03;3.23;;;;;;;;;;4953611;28;20252;-78
2023/02/05 14:49:07;;;;;;;2.83;2.50;;;;;;;;;;4945972;28;20242;-79
2023/02/05 14:51:37;;;;;;;3.70;2.57;;;;;;;;;;4939051;29;20348;-78
2023/02/05 14:54:17;;;;;;;4.13;2.43;;;;;;;;;;4955406;28;20210;-78
2023/02/05 14:56:50;;;;;;;2.50;2.30;;;;;;;;;;4961574;28;20211;-77
2023/02/05 14:59:16;;;;;;;4.00;2.30;;;;;;;;;;4955030;28;20250;-78
2023/02/05 15:01:43;;;;;;;2.90;2.30;;;;;;;;;;4958315;28;20223;-77
2023/02/05 15:04:17;;;;;;;2.90;2.47;;;;;;;;;;4953819;28;20246;-79
2023/02/05 15:06:43;;;;;;;3.07;2.17;;;;;;;;;;4964058;28;20222;-78
2023/02/05 15:09:50;;;;;;;3.93;2.60;;;;;;;;;;4936691;28;20245;-77
2023/02/05 15:12:21;;;;;;;3.30;2.90;;;;;;;;;;4948086;28;20714;-77
2023/02/05 15:14:50;;;;;;;3.40;2.30;;;;;;;;;;4946082;28;20267;-77
2023/02/05 15:17:16;;;;;;;2.60;2.40;;;;;;;;;;4963125;28;20648;-77
2023/02/05 15:19:46;;;;;;;2.87;2.33;;;;;;;;;;4966132;28;20219;-77
2023/02/05 15:22:37;;;;;;;4.10;2.37;;;;;;;;;;4964296;28;20222;-78
2023/02/05 15:25:07;;;;;;;2.70;2.50;;;;;;;;;;4943335;28;20222;-77
2023/02/05 15:27:48;;;;;;;3.67;2.40;;;;;;;;;;4962014;28;20227;-77
2023/02/05 15:30:20;;;;;;;4.50;4.03;;;;;;;;;;4948961;28;20245;-77
2023/02/05 15:32:56;;;;;;;4.30;3.90;;;;;;;;;;4963770;28;20230;-78
2023/02/05 15:35:26;;;;;;;4.30;3.20;;;;;;;;;;4954196;28;20251;-77